Time;durP1;ratioP1;P1;durP2;ratioP2;P2;SDS_P1;SDS_P2;PMS_P1;PMS_P2;Temp;Humidity;BMP_temperature;BMP_pressure;BME280_temperature;BME280_humidity;BME280_pressure;Samples;Min_cycle;Max_cycle;Signal;HPM_P1;HPM_P2
2023/07/16 00:00:50;;;;;;;;;;;21.90;68.80;;;;;;5018159;28;847;-70
2023/07/16 00:03:16;;;;;;;;;;;21.90;68.80;;;;;;5011024;28;946;-71
2023/07/16 00:05:41;;;;;;;;;;;21.90;68.80;;;;;;5018880;28;1014;-71
2023/07/16 00:08:07;;;;;;;;;;;21.90;68.80;;;;;;5013796;28;1326;-70
2023/07/16 00:10:35;;;;;;;;;;;21.90;68.80;;;;;;5016706;28;849;-72
2023/07/16 00:13:01;;;;;;;;;;;21.90;68.80;;;;;;5016415;28;875;-71
2023/07/16 00:15:27;;;;;;;;;;;21.90;68.80;;;;;;5018310;28;1164;-72
2023/07/16 00:17:52;;;;;;;;;;;21.90;68.80;;;;;;5016725;28;1965;-72
2023/07/16 00:20:18;;;;;;;;;;;21.90;68.80;;;;;;5018224;28;1343;-73
2023/07/16 00:22:43;;;;;;;;;;;21.90;68.80;;;;;;5020610;28;922;-72
2023/07/16 00:25:09;;;;;;;;;;;21.90;68.80;;;;;;5019076;28;927;-73
2023/07/16 00:27:34;;;;;;;;;;;21.90;68.80;;;;;;5020321;28;918;-69
2023/07/16 00:30:00;;;;;;;;;;;21.90;68.80;;;;;;5014630;28;1355;-69
2023/07/16 00:32:25;;;;;;;;;;;21.90;68.80;;;;;;5018415;28;820;-69
2023/07/16 00:34:51;;;;;;;;;;;21.90;68.80;;;;;;5018975;28;891;-69
2023/07/16 00:37:16;;;;;;;;;;;21.90;68.90;;;;;;5019986;28;947;-71
2023/07/16 00:39:41;;;;;;;;;;;21.90;68.80;;;;;;5017267;28;1948;-72
2023/07/16 00:42:07;;;;;;;;;;;22.00;68.90;;;;;;5014874;28;879;-73
2023/07/16 00:44:32;;;;;;;;;;;21.90;68.80;;;;;;5016453;28;871;-73
2023/07/16 00:46:58;;;;;;;;;;;22.00;68.90;;;;;;5017033;28;817;-73
2023/07/16 00:49:23;;;;;;;;;;;21.90;68.90;;;;;;5016481;28;1455;-72
2023/07/16 00:51:49;;;;;;;;;;;21.90;68.90;;;;;;5010555;28;1097;-71
2023/07/16 00:54:14;;;;;;;;;;;21.90;68.90;;;;;;5018061;28;1005;-72
2023/07/16 00:56:40;;;;;;;;;;;21.90;68.90;;;;;;5018724;28;1306;-71
2023/07/16 00:59:05;;;;;;;;;;;21.90;68.90;;;;;;5015922;28;1991;-72
2023/07/16 01:01:31;;;;;;;;;;;22.00;69.00;;;;;;5017692;28;955;-72
2023/07/16 01:03:56;;;;;;;;;;;22.00;69.00;;;;;;5018840;28;771;-70
2023/07/16 01:06:40;;;;;;;;;;;21.90;68.90;;;;;;5018090;28;836;-69
2023/07/16 01:09:24;;;;;;;;;;;22.00;69.00;;;;;;5018198;28;1253;-70
2023/07/16 01:11:50;;;;;;;;;;;21.90;69.00;;;;;;5020005;28;1573;-70
2023/07/16 01:14:18;;;;;;;;;;;22.00;69.00;;;;;;5023063;28;942;-71
2023/07/16 01:16:44;;;;;;;;;;;21.90;69.00;;;;;;5021849;28;870;-69
2023/07/16 01:19:09;;;;;;;;;;;22.00;69.10;;;;;;5021832;28;1906;-70
2023/07/16 01:21:55;;;;;;;;;;;22.00;69.00;;;;;;5021301;28;926;-70
2023/07/16 01:24:32;;;;;;;;;;;22.00;69.00;;;;;;5021502;28;994;-72
2023/07/16 01:27:17;;;;;;;;;;;21.90;69.00;;;;;;5021944;28;1238;-72
2023/07/16 01:30:09;;;;;;;;;;;22.00;69.00;;;;;;5005383;28;1275;-72
2023/07/16 01:32:35;;;;;;;;;;;22.00;69.80;;;;;;5016719;28;1433;-72
2023/07/16 01:35:00;;;;;;;;;;;22.00;69.00;;;;;;5022133;28;835;-72
2023/07/16 01:37:26;;;;;;;;;;;21.90;68.90;;;;;;5019583;28;931;-72
2023/07/16 01:39:51;;;;;;;;;;;22.00;69.00;;;;;;5019559;28;1894;-72
2023/07/16 01:42:16;;;;;;;;;;;21.90;68.90;;;;;;5002397;28;1164;-71
2023/07/16 01:44:42;;;;;;;;;;;21.90;68.90;;;;;;5022236;28;877;-71
2023/07/16 01:47:11;;;;;;;;;;;22.00;69.00;;;;;;5021696;28;1028;-72
2023/07/16 01:49:37;;;;;;;;;;;21.90;68.90;;;;;;5021167;28;1279;-72
2023/07/16 01:52:03;;;;;;;;;;;21.90;68.90;;;;;;5023548;28;1014;-71
2023/07/16 01:54:28;;;;;;;;;;;21.90;68.90;;;;;;5021131;28;1061;-72
2023/07/16 01:56:54;;;;;;;;;;;22.00;69.00;;;;;;5021158;28;857;-72
2023/07/16 01:59:19;;;;;;;;;;;21.90;69.00;;;;;;5018466;28;1899;-71
2023/07/16 02:01:45;;;;;;;;;;;21.90;69.00;;;;;;5021437;28;821;-72
2023/07/16 02:04:10;;;;;;;;;;;21.90;69.00;;;;;;5016256;28;1340;-71
2023/07/16 02:06:36;;;;;;;;;;;21.90;69.00;;;;;;5025125;28;1248;-71
2023/07/16 02:09:01;;;;;;;;;;;21.90;69.70;;;;;;5022089;28;1372;-71
2023/07/16 02:11:26;;;;;;;;;;;21.90;69.00;;;;;;5023648;28;1269;-71
2023/07/16 02:13:52;;;;;;;;;;;22.00;69.00;;;;;;5019514;28;1194;-73
2023/07/16 02:16:17;;;;;;;;;;;22.00;69.00;;;;;;5024023;28;1304;-73
2023/07/16 02:18:43;;;;;;;;;;;21.90;68.90;;;;;;5018659;28;1890;-71
2023/07/16 02:21:08;;;;;;;;;;;21.90;69.00;;;;;;5017069;28;1324;-72
2023/07/16 02:23:34;;;;;;;;;;;22.00;69.00;;;;;;5018929;28;1242;-72
2023/07/16 02:26:00;;;;;;;;;;;22.00;69.00;;;;;;5019821;28;1167;-70
2023/07/16 02:28:25;;;;;;;;;;;21.90;69.00;;;;;;5021987;28;1279;-72
2023/07/16 02:30:51;;;;;;;;;;;21.90;69.00;;;;;;5020383;28;1559;-71
2023/07/16 02:33:16;;;;;;;;;;;21.90;69.00;;;;;;5020842;28;828;-71
2023/07/16 02:35:49;;;;;;;;;;;22.00;69.00;;;;;;5020819;28;879;-71
2023/07/16 02:38:15;;;;;;;;;;;21.90;69.00;;;;;;5018822;28;1894;-71
2023/07/16 02:40:47;;;;;;;;;;;22.00;69.10;;;;;;5019389;28;909;-71
2023/07/16 02:43:12;;;;;;;;;;;21.90;69.00;;;;;;5020042;28;872;-71
2023/07/16 02:45:38;;;;;;;;;;;21.90;69.00;;;;;;5019866;28;970;-71
2023/07/16 02:48:04;;;;;;;;;;;21.90;69.00;;;;;;5017870;28;919;-71
2023/07/16 02:50:29;;;;;;;;;;;22.00;69.10;;;;;;5016005;28;1803;-71
2023/07/16 02:52:55;;;;;;;;;;;21.90;69.00;;;;;;5020350;28;926;-71
2023/07/16 02:55:20;;;;;;;;;;;21.90;69.00;;;;;;5021519;28;873;-71
2023/07/16 02:57:46;;;;;;;;;;;21.90;69.00;;;;;;5016870;28;2001;-71
2023/07/16 03:00:11;;;;;;;;;;;21.90;69.00;;;;;;5018730;28;1248;-72
2023/07/16 03:02:37;;;;;;;;;;;21.90;69.00;;;;;;5015808;28;859;-72
2023/07/16 03:05:03;;;;;;;;;;;21.90;69.00;;;;;;5021135;28;1066;-71
2023/07/16 03:07:28;;;;;;;;;;;21.90;69.00;;;;;;5020638;28;859;-71
2023/07/16 03:09:54;;;;;;;;;;;22.00;69.10;;;;;;5019076;28;1330;-72
2023/07/16 03:12:19;;;;;;;;;;;21.90;69.00;;;;;;5020173;28;796;-71
2023/07/16 03:14:44;;;;;;;;;;;22.00;69.00;;;;;;5017782;28;1074;-71
2023/07/16 03:17:10;;;;;;;;;;;21.90;69.00;;;;;;5015181;28;839;-71
2023/07/16 03:19:35;;;;;;;;;;;22.00;69.00;;;;;;5019098;28;1970;-72
2023/07/16 03:22:02;;;;;;;;;;;21.90;68.90;;;;;;5020688;28;1323;-72
2023/07/16 03:24:28;;;;;;;;;;;22.00;69.00;;;;;;5020239;28;937;-72
2023/07/16 03:26:56;;;;;;;;;;;21.90;68.90;;;;;;5019445;28;836;-71
2023/07/16 03:29:22;;;;;;;;;;;21.90;68.90;;;;;;5020084;28;1473;-71
2023/07/16 03:31:47;;;;;;;;;;;21.90;69.00;;;;;;5016873;28;871;-71
2023/07/16 03:34:13;;;;;;;;;;;21.90;69.00;;;;;;5015858;28;812;-72
2023/07/16 03:36:38;;;;;;;;;;;21.90;69.00;;;;;;5014564;28;846;-72
2023/07/16 03:39:03;;;;;;;;;;;22.00;69.00;;;;;;5010894;28;1906;-71
2023/07/16 03:41:29;;;;;;;;;;;22.00;69.00;;;;;;5015910;28;937;-71
2023/07/16 03:43:54;;;;;;;;;;;21.90;69.00;;;;;;5019244;28;1150;-71
2023/07/16 03:46:20;;;;;;;;;;;21.90;69.00;;;;;;5017846;28;1631;-71
2023/07/16 03:48:45;;;;;;;;;;;21.90;69.00;;;;;;5017354;28;1288;-72
2023/07/16 03:51:11;;;;;;;;;;;21.90;69.00;;;;;;5012020;28;1333;-71
2023/07/16 03:53:36;;;;;;;;;;;21.90;69.00;;;;;;5017567;28;1287;-71
2023/07/16 03:56:02;;;;;;;;;;;22.00;69.00;;;;;;5014645;28;844;-70
2023/07/16 03:58:29;;;;;;;;;;;21.90;69.00;;;;;;5018528;28;1906;-71
2023/07/16 04:00:54;;;;;;;;;;;22.00;69.10;;;;;;5020049;28;967;-71
2023/07/16 04:03:20;;;;;;;;;;;22.00;69.10;;;;;;5018325;28;815;-72
2023/07/16 04:05:45;;;;;;;;;;;22.00;69.10;;;;;;5017036;28;977;-72
2023/07/16 04:08:11;;;;;;;;;;;21.90;69.10;;;;;;5016167;28;1330;-71
2023/07/16 04:10:36;;;;;;;;;;;21.90;69.10;;;;;;5019827;28;796;-71
2023/07/16 04:13:02;;;;;;;;;;;22.00;69.10;;;;;;5016798;28;836;-71
2023/07/16 04:15:27;;;;;;;;;;;21.90;69.10;;;;;;5016384;28;926;-71
2023/07/16 04:17:53;;;;;;;;;;;22.00;69.10;;;;;;5017608;28;1910;-71
2023/07/16 04:20:18;;;;;;;;;;;22.00;69.10;;;;;;5009946;28;1383;-71
2023/07/16 04:22:44;;;;;;;;;;;22.00;69.10;;;;;;5017396;28;1310;-71
2023/07/16 04:25:09;;;;;;;;;;;22.00;69.10;;;;;;5015419;28;1054;-71
2023/07/16 04:27:35;;;;;;;;;;;21.90;69.00;;;;;;5016216;28;1315;-71
2023/07/16 04:30:01;;;;;;;;;;;22.00;69.10;;;;;;5017986;28;1355;-71
2023/07/16 04:32:26;;;;;;;;;;;22.00;69.10;;;;;;5020968;28;919;-72
2023/07/16 04:34:52;;;;;;;;;;;22.00;69.10;;;;;;5015622;28;756;-71
2023/07/16 04:37:17;;;;;;;;;;;22.00;69.10;;;;;;5019192;28;1203;-70
2023/07/16 04:39:43;;;;;;;;;;;22.00;69.10;;;;;;5018714;28;1902;-71
2023/07/16 04:42:08;;;;;;;;;;;22.00;69.10;;;;;;5017352;28;880;-71
2023/07/16 04:44:34;;;;;;;;;;;22.00;69.10;;;;;;5016744;28;924;-71
2023/07/16 04:46:59;;;;;;;;;;;21.90;69.10;;;;;;5017932;28;802;-71
2023/07/16 04:49:25;;;;;;;;;;;21.90;69.10;;;;;;5019436;28;1271;-71
2023/07/16 04:51:50;;;;;;;;;;;22.00;69.10;;;;;;5024670;28;1303;-70
2023/07/16 04:54:16;;;;;;;;;;;21.90;69.10;;;;;;5021041;28;1033;-71
2023/07/16 04:56:41;;;;;;;;;;;22.00;69.20;;;;;;5023024;28;846;-72
2023/07/16 04:59:07;;;;;;;;;;;21.90;69.10;;;;;;5023181;28;1973;-71
2023/07/16 05:01:32;;;;;;;;;;;21.90;69.10;;;;;;5020398;28;955;-72
2023/07/16 05:03:57;;;;;;;;;;;22.00;69.20;;;;;;5020540;28;1121;-71
2023/07/16 05:06:23;;;;;;;;;;;22.00;69.10;;;;;;5025313;28;840;-71
2023/07/16 05:08:48;;;;;;;;;;;22.00;69.20;;;;;;5020220;28;1930;-70
2023/07/16 05:11:14;;;;;;;;;;;22.00;69.20;;;;;;5025780;28;1631;-69
2023/07/16 05:13:39;;;;;;;;;;;22.00;69.20;;;;;;5019568;28;1469;-70
2023/07/16 05:16:05;;;;;;;;;;;22.00;69.20;;;;;;5016626;28;948;-70
2023/07/16 05:18:30;;;;;;;;;;;22.00;69.20;;;;;;5025735;28;1906;-71
2023/07/16 05:20:56;;;;;;;;;;;22.00;69.20;;;;;;5020874;28;1377;-70
2023/07/16 05:23:22;;;;;;;;;;;22.00;69.20;;;;;;5021916;28;854;-70
2023/07/16 05:25:48;;;;;;;;;;;22.00;69.20;;;;;;5020116;28;938;-69
2023/07/16 05:28:14;;;;;;;;;;;22.00;69.20;;;;;;5001491;28;1486;-70
2023/07/16 05:30:39;;;;;;;;;;;21.90;69.10;;;;;;5023959;28;889;-70
2023/07/16 05:33:05;;;;;;;;;;;22.00;69.20;;;;;;5017469;28;1041;-70
2023/07/16 05:35:30;;;;;;;;;;;22.00;69.10;;;;;;5019019;28;1188;-70
2023/07/16 05:37:56;;;;;;;;;;;22.00;69.20;;;;;;5018158;28;1965;-70
2023/07/16 05:40:21;;;;;;;;;;;22.00;69.20;;;;;;5015224;28;1211;-70
2023/07/16 05:42:47;;;;;;;;;;;22.00;69.20;;;;;;5021207;28;847;-70
2023/07/16 05:45:12;;;;;;;;;;;22.00;69.20;;;;;;5013005;28;1428;-70
2023/07/16 05:47:38;;;;;;;;;;;21.90;69.10;;;;;;5025158;28;1010;-69
2023/07/16 05:50:03;;;;;;;;;;;21.90;69.10;;;;;;5024426;28;1363;-68
2023/07/16 05:52:29;;;;;;;;;;;22.00;69.20;;;;;;5013429;28;1321;-69
2023/07/16 05:54:54;;;;;;;;;;;22.00;69.20;;;;;;5021868;28;895;-69
2023/07/16 05:57:20;;;;;;;;;;;22.00;69.30;;;;;;5023952;28;1041;-69
2023/07/16 05:59:45;;;;;;;;;;;22.00;69.20;;;;;;5020293;28;1914;-70
2023/07/16 06:02:11;;;;;;;;;;;22.00;69.20;;;;;;5023972;28;910;-70
2023/07/16 06:04:36;;;;;;;;;;;22.00;69.20;;;;;;5021680;28;862;-69
2023/07/16 06:07:02;;;;;;;;;;;22.00;69.20;;;;;;5016975;28;1371;-69
2023/07/16 06:09:27;;;;;;;;;;;22.00;69.20;;;;;;5016687;28;1287;-69
2023/07/16 06:11:53;;;;;;;;;;;22.00;69.20;;;;;;5021676;28;1422;-70
2023/07/16 06:14:18;;;;;;;;;;;22.00;69.20;;;;;;5016971;28;803;-70
2023/07/16 06:16:46;;;;;;;;;;;22.00;69.20;;;;;;5019996;28;860;-70
2023/07/16 06:19:12;;;;;;;;;;;21.90;69.20;;;;;;5023394;28;1963;-70
2023/07/16 06:21:37;;;;;;;;;;;21.90;69.20;;;;;;5020744;28;875;-69
2023/07/16 06:24:03;;;;;;;;;;;22.00;69.20;;;;;;5019684;28;1294;-70
2023/07/16 06:26:28;;;;;;;;;;;22.00;69.20;;;;;;5019858;28;1006;-70
2023/07/16 06:28:54;;;;;;;;;;;22.00;69.20;;;;;;5020674;28;1276;-70
2023/07/16 06:31:19;;;;;;;;;;;22.00;69.20;;;;;;5021650;28;812;-70
2023/07/16 06:33:46;;;;;;;;;;;22.00;69.20;;;;;;5021324;28;938;-69
2023/07/16 06:36:12;;;;;;;;;;;22.00;69.20;;;;;;5021666;28;849;-70
2023/07/16 06:38:37;;;;;;;;;;;22.00;69.30;;;;;;5019062;28;1961;-70
2023/07/16 06:41:03;;;;;;;;;;;22.00;69.20;;;;;;5019716;28;959;-69
2023/07/16 06:43:28;;;;;;;;;;;22.00;69.20;;;;;;5018314;28;852;-69
2023/07/16 06:45:54;;;;;;;;;;;22.00;69.20;;;;;;5017674;28;861;-69
2023/07/16 06:48:19;;;;;;;;;;;22.00;69.20;;;;;;5017640;28;1288;-70
2023/07/16 06:50:45;;;;;;;;;;;22.00;69.30;;;;;;5018729;28;782;-69
2023/07/16 06:53:10;;;;;;;;;;;22.00;69.20;;;;;;5014805;28;1026;-70
2023/07/16 06:55:36;;;;;;;;;;;22.00;69.20;;;;;;5025954;28;843;-70
2023/07/16 06:58:02;;;;;;;;;;;21.90;69.20;;;;;;5015334;28;1918;-70
2023/07/16 07:00:28;;;;;;;;;;;22.00;69.20;;;;;;5010086;28;1405;-70
2023/07/16 07:02:54;;;;;;;;;;;22.00;69.20;;;;;;5018828;28;810;-69
2023/07/16 07:05:19;;;;;;;;;;;22.00;69.30;;;;;;5019734;28;894;-70
2023/07/16 07:07:45;;;;;;;;;;;22.00;69.20;;;;;;5015488;28;1509;-68
2023/07/16 07:10:11;;;;;;;;;;;22.00;69.20;;;;;;5017989;28;1237;-70
2023/07/16 07:12:37;;;;;;;;;;;22.00;69.20;;;;;;5024033;28;884;-70
2023/07/16 07:15:09;;;;;;;;;;;21.90;69.20;;;;;;5023267;28;808;-70
2023/07/16 07:17:34;;;;;;;;;;;22.00;69.20;;;;;;5017673;28;858;-69
2023/07/16 07:20:00;;;;;;;;;;;22.00;69.30;;;;;;5020950;28;1890;-70
2023/07/16 07:22:25;;;;;;;;;;;22.00;69.30;;;;;;5011561;28;1401;-69
2023/07/16 07:24:51;;;;;;;;;;;22.00;69.30;;;;;;5018392;28;2117;-69
2023/07/16 07:27:16;;;;;;;;;;;22.00;69.30;;;;;;5018499;28;1579;-69
2023/07/16 07:29:42;;;;;;;;;;;22.00;69.30;;;;;;5017813;28;1596;-70
2023/07/16 07:32:07;;;;;;;;;;;22.00;69.30;;;;;;5018389;28;858;-69
2023/07/16 07:34:33;;;;;;;;;;;22.00;69.30;;;;;;5023543;28;792;-69
2023/07/16 07:36:58;;;;;;;;;;;22.00;69.30;;;;;;5020440;28;872;-69
2023/07/16 07:39:24;;;;;;;;;;;22.00;69.30;;;;;;5020329;28;1962;-69
2023/07/16 07:41:49;;;;;;;;;;;22.00;69.30;;;;;;5015220;28;840;-69
2023/07/16 07:44:15;;;;;;;;;;;22.00;69.30;;;;;;5016078;28;820;-70
2023/07/16 07:46:40;;;;;;;;;;;22.00;69.30;;;;;;5021517;28;880;-70
2023/07/16 07:49:05;;;;;;;;;;;22.00;69.30;;;;;;5020777;28;1226;-70
2023/07/16 07:51:31;;;;;;;;;;;22.00;69.30;;;;;;5021361;28;808;-69
2023/07/16 07:53:56;;;;;;;;;;;22.00;69.20;;;;;;5020259;28;805;-70
2023/07/16 07:56:22;;;;;;;;;;;21.90;69.20;;;;;;5021268;28;867;-70
2023/07/16 07:58:47;;;;;;;;;;;22.00;69.30;;;;;;5009320;28;1906;-69
2023/07/16 08:01:13;;;;;;;;;;;22.00;69.30;;;;;;5014148;28;800;-70
2023/07/16 08:03:38;;;;;;;;;;;21.90;69.20;;;;;;5012555;28;843;-69
2023/07/16 08:06:04;;;;;;;;;;;22.00;69.30;;;;;;5016480;28;907;-69
2023/07/16 08:08:29;;;;;;;;;;;22.00;69.30;;;;;;5018486;28;1283;-69
2023/07/16 08:10:55;;;;;;;;;;;22.00;69.30;;;;;;5019782;28;950;-69
2023/07/16 08:13:20;;;;;;;;;;;22.00;69.30;;;;;;5017997;28;906;-69
2023/07/16 08:15:47;;;;;;;;;;;22.00;69.30;;;;;;5026683;28;1286;-70
2023/07/16 08:18:13;;;;;;;;;;;22.00;69.30;;;;;;5019061;28;1891;-70
2023/07/16 08:20:38;;;;;;;;;;;21.90;69.20;;;;;;5016717;28;842;-69
2023/07/16 08:23:04;;;;;;;;;;;22.00;69.30;;;;;;5018717;28;1277;-69
2023/07/16 08:25:29;;;;;;;;;;;22.00;69.40;;;;;;5017944;28;896;-69
2023/07/16 08:27:55;;;;;;;;;;;22.00;69.30;;;;;;5016382;28;1256;-70
2023/07/16 08:30:20;;;;;;;;;;;21.90;69.20;;;;;;5015184;28;1331;-69
2023/07/16 08:32:45;;;;;;;;;;;22.00;69.40;;;;;;5017301;28;895;-70
2023/07/16 08:35:19;;;;;;;;;;;21.90;69.30;;;;;;5017698;28;883;-70
2023/07/16 08:37:45;;;;;;;;;;;22.00;69.30;;;;;;5018004;28;1953;-69
2023/07/16 08:40:11;;;;;;;;;;;22.00;69.40;;;;;;5018797;28;1378;-69
2023/07/16 08:42:39;;;;;;;;;;;21.90;69.30;;;;;;5019691;28;809;-69
2023/07/16 08:45:08;;;;;;;;;;;22.00;69.30;;;;;;5018169;28;848;-69
2023/07/16 08:47:34;;;;;;;;;;;21.90;69.30;;;;;;5017520;28;784;-70
2023/07/16 08:50:00;;;;;;;;;;;22.00;69.50;;;;;;5018317;28;1279;-69
2023/07/16 08:52:26;;;;;;;;;;;22.00;69.30;;;;;;5016569;28;1386;-69
2023/07/16 08:54:51;;;;;;;;;;;22.00;69.30;;;;;;5019936;28;839;-70
2023/07/16 08:57:17;;;;;;;;;;;22.00;69.30;;;;;;5020867;28;965;-69
2023/07/16 08:59:42;;;;;;;;;;;22.00;69.30;;;;;;5007002;28;1979;-69
2023/07/16 09:02:08;;;;;;;;;;;22.00;69.30;;;;;;5015690;28;836;-69
2023/07/16 09:04:33;;;;;;;;;;;22.00;69.30;;;;;;5013999;28;895;-70
2023/07/16 09:06:59;;;;;;;;;;;22.00;69.30;;;;;;5017096;28;974;-70
2023/07/16 09:09:24;;;;;;;;;;;21.90;69.20;;;;;;5019149;28;1215;-69
2023/07/16 09:11:50;;;;;;;;;;;22.00;69.30;;;;;;5018475;28;985;-70
2023/07/16 09:14:18;;;;;;;;;;;21.90;69.20;;;;;;5017394;28;851;-70
2023/07/16 09:16:50;;;;;;;;;;;22.00;69.30;;;;;;5014095;28;884;-70
2023/07/16 09:19:18;;;;;;;;;;;22.00;69.30;;;;;;5019557;28;1898;-70
2023/07/16 09:21:50;;;;;;;;;;;22.00;69.30;;;;;;5017454;28;1260;-69
2023/07/16 09:24:16;;;;;;;;;;;22.00;69.30;;;;;;5018821;28;885;-69
2023/07/16 09:26:51;;;;;;;;;;;22.00;70.10;;;;;;5017589;28;819;-69
2023/07/16 09:29:17;;;;;;;;;;;22.00;69.30;;;;;;5018623;28;1381;-70
2023/07/16 09:31:52;;;;;;;;;;;22.00;69.30;;;;;;5016134;28;867;-69
2023/07/16 09:34:18;;;;;;;;;;;22.00;69.30;;;;;;5017505;28;1197;-69
2023/07/16 09:36:43;;;;;;;;;;;22.00;69.30;;;;;;5022650;28;922;-69
2023/07/16 09:39:09;;;;;;;;;;;22.00;69.30;;;;;;5020477;28;1967;-69
2023/07/16 09:41:34;;;;;;;;;;;22.00;69.30;;;;;;5021318;28;1171;-69
2023/07/16 09:44:00;;;;;;;;;;;22.00;69.30;;;;;;5020259;28;879;-69
2023/07/16 09:46:25;;;;;;;;;;;22.00;69.30;;;;;;5017248;28;892;-69
2023/07/16 09:48:51;;;;;;;;;;;22.00;69.30;;;;;;5018442;28;1267;-69
2023/07/16 09:51:16;;;;;;;;;;;22.00;69.30;;;;;;5017495;28;848;-69
2023/07/16 09:53:42;;;;;;;;;;;22.00;69.30;;;;;;5023641;28;981;-69
2023/07/16 09:56:08;;;;;;;;;;;22.00;69.30;;;;;;5009768;28;1212;-69
2023/07/16 09:58:33;;;;;;;;;;;22.00;69.40;;;;;;5017330;28;1968;-70
2023/07/16 10:00:59;;;;;;;;;;;22.00;69.30;;;;;;5017673;28;1022;-70
2023/07/16 10:03:24;;;;;;;;;;;22.00;69.30;;;;;;5022125;28;817;-69
2023/07/16 10:05:51;;;;;;;;;;;22.00;69.30;;;;;;5022239;28;1006;-69
2023/07/16 10:08:17;;;;;;;;;;;22.00;69.30;;;;;;5014085;28;1267;-70
2023/07/16 10:10:53;;;;;;;;;;;22.00;69.40;;;;;;5016947;28;836;-69
2023/07/16 10:13:21;;;;;;;;;;;22.00;69.30;;;;;;5018813;28;850;-69
2023/07/16 10:15:53;;;;;;;;;;;22.00;69.40;;;;;;5021906;28;1046;-70
2023/07/16 10:18:25;;;;;;;;;;;22.00;69.30;;;;;;5021494;28;1902;-70
2023/07/16 10:20:51;;;;;;;;;;;22.00;69.40;;;;;;5021666;28;890;-69
2023/07/16 10:23:16;;;;;;;;;;;22.00;69.30;;;;;;5018255;28;1196;-69
2023/07/16 10:26:00;;;;;;;;;;;22.00;69.30;;;;;;5019762;28;903;-70
2023/07/16 10:28:26;;;;;;;;;;;22.00;69.30;;;;;;5020427;28;1319;-70
2023/07/16 10:30:51;;;;;;;;;;;22.00;69.30;;;;;;5024132;28;797;-70
2023/07/16 10:33:17;;;;;;;;;;;22.00;69.30;;;;;;5020671;28;804;-70
2023/07/16 10:35:44;;;;;;;;;;;22.00;69.30;;;;;;5017876;28;871;-69
2023/07/16 10:38:09;;;;;;;;;;;22.00;69.30;;;;;;5016120;28;1902;-70
2023/07/16 10:40:39;;;;;;;;;;;22.00;69.30;;;;;;5022071;28;1399;-69
2023/07/16 10:43:05;;;;;;;;;;;22.00;69.40;;;;;;5018136;28;830;-69
2023/07/16 10:45:30;;;;;;;;;;;22.00;69.30;;;;;;5015737;28;1387;-69
2023/07/16 10:47:56;;;;;;;;;;;22.00;69.30;;;;;;5021592;28;879;-70
2023/07/16 10:50:22;;;;;;;;;;;22.00;69.30;;;;;;5023617;28;1355;-69
2023/07/16 10:52:50;;;;;;;;;;;22.00;69.40;;;;;;5022933;28;910;-69
2023/07/16 10:55:15;;;;;;;;;;;22.00;69.30;;;;;;5016585;28;1042;-69
2023/07/16 10:57:41;;;;;;;;;;;22.00;69.30;;;;;;5022453;28;891;-70
2023/07/16 11:00:10;;;;;;;;;;;22.00;69.30;;;;;;5023037;28;1941;-70
2023/07/16 11:02:37;;;;;;;;;;;22.00;69.30;;;;;;5015596;28;885;-69
2023/07/16 11:05:02;;;;;;;;;;;22.00;69.40;;;;;;5015944;28;1223;-69
2023/07/16 11:07:28;;;;;;;;;;;22.00;69.40;;;;;;5018467;28;870;-69
2023/07/16 11:09:54;;;;;;;;;;;22.00;69.30;;;;;;5021076;28;1257;-69
2023/07/16 11:12:20;;;;;;;;;;;22.00;69.30;;;;;;5020029;28;885;-69
2023/07/16 11:14:49;;;;;;;;;;;22.00;69.30;;;;;;5019370;28;927;-69
2023/07/16 11:17:15;;;;;;;;;;;22.00;69.30;;;;;;5021798;28;816;-69
2023/07/16 11:19:42;;;;;;;;;;;22.00;69.40;;;;;;5015856;28;1894;-69
2023/07/16 11:22:08;;;;;;;;;;;22.00;69.30;;;;;;5015605;28;1390;-69
2023/07/16 11:24:59;;;;;;;;;;;22.00;69.30;;;;;;5018249;28;2178;-69
2023/07/16 11:27:30;;;;;;;;;;;22.00;69.30;;;;;;5016233;28;1894;-69
2023/07/16 11:29:59;;;;;;;;;;;22.00;69.30;;;;;;5020795;28;1492;-68
2023/07/16 11:32:31;;;;;;;;;;;22.00;69.40;;;;;;5018172;28;1476;-69
2023/07/16 11:34:58;;;;;;;;;;;22.00;69.40;;;;;;5017163;28;840;-69
2023/07/16 11:37:27;;;;;;;;;;;22.00;69.30;;;;;;5014981;28;897;-69
2023/07/16 11:39:56;;;;;;;;;;;22.00;69.50;;;;;;5020048;28;2068;-69
2023/07/16 11:42:28;;;;;;;;;;;22.00;69.30;;;;;;5017905;28;828;-69
2023/07/16 11:44:54;;;;;;;;;;;22.00;69.30;;;;;;5020684;28;856;-68
2023/07/16 11:47:20;;;;;;;;;;;22.00;69.30;;;;;;5017908;28;863;-69
2023/07/16 11:49:45;;;;;;;;;;;22.00;69.40;;;;;;5019942;28;1404;-68
2023/07/16 11:52:11;;;;;;;;;;;22.00;69.40;;;;;;5016019;28;849;-69
2023/07/16 11:54:36;;;;;;;;;;;22.00;69.40;;;;;;5020844;28;864;-68
2023/07/16 11:57:02;;;;;;;;;;;22.00;69.40;;;;;;5020381;28;867;-68
2023/07/16 11:59:27;;;;;;;;;;;22.10;68.90;;;;;;5019688;28;1960;-69
2023/07/16 12:01:54;;;;;;;;;;;22.10;63.50;;;;;;5019577;28;924;-68
2023/07/16 12:04:19;;;;;;;;;;;22.20;61.40;;;;;;5019403;28;928;-68
2023/07/16 12:06:45;;;;;;;;;;;22.20;62.20;;;;;;5018614;28;1052;-69
2023/07/16 12:09:11;;;;;;;;;;;22.30;62.30;;;;;;5019080;28;1283;-68
2023/07/16 12:11:37;;;;;;;;;;;22.40;61.60;;;;;;5018212;28;1179;-69
2023/07/16 12:14:04;;;;;;;;;;;22.40;60.90;;;;;;5017783;28;828;-68
2023/07/16 12:16:29;;;;;;;;;;;22.40;61.30;;;;;;5021762;28;2138;-69
2023/07/16 12:18:57;;;;;;;;;;;22.50;59.50;;;;;;5017716;28;1949;-70
2023/07/16 12:21:22;;;;;;;;;;;22.50;60.00;;;;;;5018795;28;961;-69
2023/07/16 12:23:48;;;;;;;;;;;22.60;59.00;;;;;;5018531;28;839;-69
2023/07/16 12:26:13;;;;;;;;;;;22.60;58.60;;;;;;5020975;28;1020;-68
2023/07/16 12:28:39;;;;;;;;;;;22.60;57.90;;;;;;5017944;28;1366;-69
2023/07/16 12:31:04;;;;;;;;;;;22.60;56.80;;;;;;5016375;28;861;-69
2023/07/16 12:33:30;;;;;;;;;;;22.60;57.70;;;;;;5019902;28;851;-69
2023/07/16 12:35:55;;;;;;;;;;;22.70;56.90;;;;;;5022191;28;887;-69
2023/07/16 12:38:22;;;;;;;;;;;22.70;57.10;;;;;;5017522;28;1957;-68
2023/07/16 12:40:47;;;;;;;;;;;22.70;56.00;;;;;;5017179;28;905;-69
2023/07/16 12:43:13;;;;;;;;;;;22.70;55.80;;;;;;5018188;28;1212;-68
2023/07/16 12:45:38;;;;;;;;;;;22.70;56.20;;;;;;5020103;28;913;-68
2023/07/16 12:48:04;;;;;;;;;;;22.80;56.30;;;;;;5016323;28;924;-69
2023/07/16 12:50:29;;;;;;;;;;;22.80;55.50;;;;;;5015309;28;1378;-69
2023/07/16 12:52:55;;;;;;;;;;;22.80;55.80;;;;;;5016782;28;899;-69
2023/07/16 12:55:20;;;;;;;;;;;22.80;55.80;;;;;;5018324;28;905;-68
2023/07/16 12:57:46;;;;;;;;;;;22.80;55.50;;;;;;5015314;28;874;-68
2023/07/16 13:00:11;;;;;;;;;;;22.80;55.90;;;;;;5016003;28;1965;-68
2023/07/16 13:02:38;;;;;;;;;;;22.80;55.50;;;;;;5016695;28;933;-68
2023/07/16 13:05:03;;;;;;;;;;;22.80;56.20;;;;;;5019293;28;890;-69
2023/07/16 13:07:29;;;;;;;;;;;22.80;56.70;;;;;;5020445;28;887;-69
2023/07/16 13:09:55;;;;;;;;;;;22.80;57.00;;;;;;5018865;28;1286;-69
2023/07/16 13:12:20;;;;;;;;;;;22.80;56.00;;;;;;5018893;28;875;-69
2023/07/16 13:14:46;;;;;;;;;;;22.80;56.80;;;;;;5023470;28;871;-69
2023/07/16 13:17:11;;;;;;;;;;;22.80;57.00;;;;;;5022601;28;865;-69
2023/07/16 13:19:37;;;;;;;;;;;22.80;55.20;;;;;;5022731;28;1895;-69
2023/07/16 13:22:02;;;;;;;;;;;22.80;55.10;;;;;;5022565;28;1262;-69
2023/07/16 13:24:28;;;;;;;;;;;22.90;55.10;;;;;;5022448;28;1014;-68
2023/07/16 13:26:53;;;;;;;;;;;22.90;53.50;;;;;;5020219;28;1309;-69
2023/07/16 13:29:19;;;;;;;;;;;22.90;53.20;;;;;;5024021;28;1435;-69
2023/07/16 13:31:44;;;;;;;;;;;22.90;54.30;;;;;;5022451;28;892;-68
2023/07/16 13:34:09;;;;;;;;;;;22.90;53.60;;;;;;5012410;28;1559;-69
2023/07/16 13:36:35;;;;;;;;;;;22.90;54.10;;;;;;5019782;28;879;-70
2023/07/16 13:39:00;;;;;;;;;;;23.00;53.70;;;;;;5013974;28;1910;-68
2023/07/16 13:41:26;;;;;;;;;;;23.00;52.80;;;;;;5021560;28;1002;-68
2023/07/16 13:43:52;;;;;;;;;;;23.00;52.80;;;;;;5022515;28;779;-69
2023/07/16 13:46:18;;;;;;;;;;;23.00;52.00;;;;;;5022191;28;884;-68
2023/07/16 13:48:43;;;;;;;;;;;23.00;52.50;;;;;;5019332;28;1264;-69
2023/07/16 13:51:09;;;;;;;;;;;23.00;52.50;;;;;;5021048;28;1061;-69
2023/07/16 13:53:34;;;;;;;;;;;23.00;52.00;;;;;;5021230;28;917;-69
2023/07/16 13:56:00;;;;;;;;;;;23.00;51.40;;;;;;5021810;28;836;-69
2023/07/16 13:58:25;;;;;;;;;;;23.00;51.20;;;;;;5020938;28;1987;-69
2023/07/16 14:00:51;;;;;;;;;;;23.00;51.50;;;;;;5022149;28;844;-69
2023/07/16 14:03:16;;;;;;;;;;;23.10;51.70;;;;;;5023821;28;875;-69
2023/07/16 14:05:42;;;;;;;;;;;23.00;52.20;;;;;;5022597;28;1325;-68
2023/07/16 14:08:08;;;;;;;;;;;23.00;51.60;;;;;;5021863;28;951;-68
2023/07/16 14:10:33;;;;;;;;;;;23.00;51.70;;;;;;5021207;28;1249;-69
2023/07/16 14:12:59;;;;;;;;;;;23.00;51.20;;;;;;5024685;28;820;-69
2023/07/16 14:15:24;;;;;;;;;;;23.00;51.50;;;;;;5019145;28;883;-69
2023/07/16 14:17:50;;;;;;;;;;;23.00;50.30;;;;;;5022917;28;816;-69
2023/07/16 14:20:15;;;;;;;;;;;23.00;50.40;;;;;;5018161;28;1894;-68
2023/07/16 14:22:41;;;;;;;;;;;23.00;50.50;;;;;;5022745;28;1264;-70
2023/07/16 14:25:06;;;;;;;;;;;23.00;51.30;;;;;;5019428;28;1607;-68
2023/07/16 14:27:32;;;;;;;;;;;23.00;50.50;;;;;;5018936;28;1392;-69
2023/07/16 14:29:58;;;;;;;;;;;23.00;50.30;;;;;;5020781;28;1268;-69